sensor_id;sensor_type;location;lat;lon;timestamp;P1;durP1;ratioP1;P2;durP2;ratioP2
70183;SDS011;57554;51.546;6.776;2023-07-08T00:00:43;8.45;;;2.30;;
70183;SDS011;57554;51.546;6.776;2023-07-08T00:03:13;5.80;;;2.45;;
70183;SDS011;57554;51.546;6.776;2023-07-08T00:05:42;5.55;;;2.33;;
70183;SDS011;57554;51.546;6.776;2023-07-08T00:08:12;5.50;;;2.38;;
70183;SDS011;57554;51.546;6.776;2023-07-08T00:10:42;9.45;;;2.67;;
70183;SDS011;57554;51.546;6.776;2023-07-08T00:13:08;8.80;;;2.30;;
70183;SDS011;57554;51.546;6.776;2023-07-08T00:15:35;7.10;;;2.22;;
70183;SDS011;57554;51.546;6.776;2023-07-08T00:18:01;6.93;;;2.00;;
70183;SDS011;57554;51.546;6.776;2023-07-08T00:20:40;7.35;;;2.50;;
70183;SDS011;57554;51.546;6.776;2023-07-08T00:23:08;7.03;;;2.20;;
70183;SDS011;57554;51.546;6.776;2023-07-08T00:25:34;5.97;;;2.35;;
70183;SDS011;57554;51.546;6.776;2023-07-08T00:28:00;10.80;;;2.58;;
70183;SDS011;57554;51.546;6.776;2023-07-08T00:30:29;8.43;;;2.67;;
70183;SDS011;57554;51.546;6.776;2023-07-08T00:32:56;6.53;;;2.50;;
70183;SDS011;57554;51.546;6.776;2023-07-08T00:35:27;5.88;;;2.33;;
70183;SDS011;57554;51.546;6.776;2023-07-08T00:37:58;6.75;;;2.30;;
70183;SDS011;57554;51.546;6.776;2023-07-08T00:40:28;6.90;;;2.55;;
70183;SDS011;57554;51.546;6.776;2023-07-08T00:42:55;5.60;;;2.70;;
70183;SDS011;57554;51.546;6.776;2023-07-08T00:48:03;6.72;;;2.40;;
70183;SDS011;57554;51.546;6.776;2023-07-08T00:50:50;5.85;;;2.40;;
70183;SDS011;57554;51.546;6.776;2023-07-08T00:56:16;8.52;;;2.53;;
70183;SDS011;57554;51.546;6.776;2023-07-08T00:58:50;6.95;;;2.30;;
70183;SDS011;57554;51.546;6.776;2023-07-08T01:01:22;5.40;;;2.38;;
70183;SDS011;57554;51.546;6.776;2023-07-08T01:03:50;6.55;;;2.42;;
70183;SDS011;57554;51.546;6.776;2023-07-08T01:06:18;7.38;;;2.38;;
70183;SDS011;57554;51.546;6.776;2023-07-08T01:08:46;7.70;;;2.55;;
70183;SDS011;57554;51.546;6.776;2023-07-08T01:11:17;7.55;;;2.60;;
70183;SDS011;57554;51.546;6.776;2023-07-08T01:13:46;5.95;;;2.60;;
70183;SDS011;57554;51.546;6.776;2023-07-08T01:16:15;7.85;;;2.25;;
70183;SDS011;57554;51.546;6.776;2023-07-08T01:18:41;7.40;;;2.28;;
70183;SDS011;57554;51.546;6.776;2023-07-08T01:21:30;7.78;;;2.50;;
70183;SDS011;57554;51.546;6.776;2023-07-08T01:24:05;7.82;;;2.30;;
70183;SDS011;57554;51.546;6.776;2023-07-08T01:26:35;6.47;;;2.50;;
70183;SDS011;57554;51.546;6.776;2023-07-08T01:29:03;7.95;;;2.58;;
70183;SDS011;57554;51.546;6.776;2023-07-08T01:31:29;9.23;;;2.60;;
70183;SDS011;57554;51.546;6.776;2023-07-08T01:33:55;6.45;;;2.25;;
70183;SDS011;57554;51.546;6.776;2023-07-08T01:36:21;6.38;;;2.40;;
70183;SDS011;57554;51.546;6.776;2023-07-08T01:38:47;8.02;;;2.60;;
70183;SDS011;57554;51.546;6.776;2023-07-08T01:41:13;6.00;;;2.33;;
70183;SDS011;57554;51.546;6.776;2023-07-08T01:43:40;7.28;;;2.00;;
70183;SDS011;57554;51.546;6.776;2023-07-08T01:46:10;5.47;;;2.40;;
70183;SDS011;57554;51.546;6.776;2023-07-08T01:48:49;8.23;;;2.30;;
70183;SDS011;57554;51.546;6.776;2023-07-08T01:51:21;5.75;;;2.35;;
70183;SDS011;57554;51.546;6.776;2023-07-08T01:53:48;6.03;;;2.20;;
70183;SDS011;57554;51.546;6.776;2023-07-08T01:56:14;6.35;;;2.40;;
70183;SDS011;57554;51.546;6.776;2023-07-08T01:58:40;5.40;;;2.17;;
70183;SDS011;57554;51.546;6.776;2023-07-08T02:01:06;6.07;;;2.67;;
70183;SDS011;57554;51.546;6.776;2023-07-08T02:03:33;5.40;;;2.40;;
70183;SDS011;57554;51.546;6.776;2023-07-08T02:05:59;6.07;;;2.47;;
70183;SDS011;57554;51.546;6.776;2023-07-08T02:08:25;5.80;;;2.65;;
70183;SDS011;57554;51.546;6.776;2023-07-08T02:10:51;5.50;;;2.38;;
70183;SDS011;57554;51.546;6.776;2023-07-08T02:13:19;8.55;;;2.33;;
70183;SDS011;57554;51.546;6.776;2023-07-08T02:15:45;5.47;;;2.30;;
70183;SDS011;57554;51.546;6.776;2023-07-08T02:18:11;6.90;;;2.00;;
70183;SDS011;57554;51.546;6.776;2023-07-08T02:20:36;5.47;;;2.25;;
70183;SDS011;57554;51.546;6.776;2023-07-08T02:23:02;6.35;;;2.25;;
70183;SDS011;57554;51.546;6.776;2023-07-08T02:25:28;5.78;;;2.10;;
70183;SDS011;57554;51.546;6.776;2023-07-08T02:27:53;5.95;;;2.38;;
70183;SDS011;57554;51.546;6.776;2023-07-08T02:30:22;7.57;;;2.38;;
70183;SDS011;57554;51.546;6.776;2023-07-08T02:32:52;6.95;;;2.40;;
70183;SDS011;57554;51.546;6.776;2023-07-08T02:35:24;6.78;;;2.50;;
70183;SDS011;57554;51.546;6.776;2023-07-08T02:37:52;8.38;;;2.40;;
70183;SDS011;57554;51.546;6.776;2023-07-08T02:40:19;6.82;;;2.38;;
70183;SDS011;57554;51.546;6.776;2023-07-08T02:42:45;6.78;;;2.60;;
70183;SDS011;57554;51.546;6.776;2023-07-08T02:45:11;4.53;;;2.00;;
70183;SDS011;57554;51.546;6.776;2023-07-08T02:47:37;5.75;;;2.03;;
70183;SDS011;57554;51.546;6.776;2023-07-08T02:50:03;5.18;;;2.10;;
70183;SDS011;57554;51.546;6.776;2023-07-08T02:52:29;5.22;;;2.33;;
70183;SDS011;57554;51.546;6.776;2023-07-08T02:54:55;5.88;;;2.30;;
70183;SDS011;57554;51.546;6.776;2023-07-08T02:57:21;5.32;;;2.03;;
70183;SDS011;57554;51.546;6.776;2023-07-08T02:59:46;6.00;;;2.25;;
70183;SDS011;57554;51.546;6.776;2023-07-08T03:02:12;7.93;;;2.53;;
70183;SDS011;57554;51.546;6.776;2023-07-08T03:04:37;7.47;;;2.58;;
70183;SDS011;57554;51.546;6.776;2023-07-08T03:07:04;5.18;;;2.28;;
70183;SDS011;57554;51.546;6.776;2023-07-08T03:09:31;8.25;;;2.45;;
70183;SDS011;57554;51.546;6.776;2023-07-08T03:11:57;4.97;;;2.20;;
70183;SDS011;57554;51.546;6.776;2023-07-08T03:14:23;5.70;;;2.33;;
70183;SDS011;57554;51.546;6.776;2023-07-08T03:16:49;5.88;;;2.63;;
70183;SDS011;57554;51.546;6.776;2023-07-08T03:19:15;5.03;;;2.50;;
70183;SDS011;57554;51.546;6.776;2023-07-08T03:21:42;6.00;;;2.40;;
70183;SDS011;57554;51.546;6.776;2023-07-08T03:24:11;5.05;;;2.20;;
70183;SDS011;57554;51.546;6.776;2023-07-08T03:26:37;6.20;;;2.55;;
70183;SDS011;57554;51.546;6.776;2023-07-08T03:29:03;5.70;;;2.33;;
70183;SDS011;57554;51.546;6.776;2023-07-08T03:31:28;6.47;;;2.50;;
70183;SDS011;57554;51.546;6.776;2023-07-08T03:33:54;5.45;;;2.58;;
70183;SDS011;57554;51.546;6.776;2023-07-08T03:36:19;7.60;;;2.50;;
70183;SDS011;57554;51.546;6.776;2023-07-08T03:38:52;4.82;;;2.30;;
70183;SDS011;57554;51.546;6.776;2023-07-08T03:41:19;5.93;;;2.60;;
70183;SDS011;57554;51.546;6.776;2023-07-08T03:43:45;6.22;;;2.45;;
70183;SDS011;57554;51.546;6.776;2023-07-08T03:46:11;5.60;;;2.45;;
70183;SDS011;57554;51.546;6.776;2023-07-08T03:48:38;7.22;;;2.47;;
70183;SDS011;57554;51.546;6.776;2023-07-08T03:51:04;7.68;;;2.60;;
70183;SDS011;57554;51.546;6.776;2023-07-08T03:53:33;5.78;;;2.60;;
70183;SDS011;57554;51.546;6.776;2023-07-08T03:55:59;5.82;;;2.50;;
70183;SDS011;57554;51.546;6.776;2023-07-08T03:58:24;5.65;;;2.28;;
70183;SDS011;57554;51.546;6.776;2023-07-08T04:00:53;5.85;;;2.67;;
70183;SDS011;57554;51.546;6.776;2023-07-08T04:03:18;6.57;;;2.80;;
70183;SDS011;57554;51.546;6.776;2023-07-08T04:05:44;8.43;;;2.47;;
70183;SDS011;57554;51.546;6.776;2023-07-08T04:08:10;6.00;;;2.70;;
70183;SDS011;57554;51.546;6.776;2023-07-08T04:10:35;6.25;;;2.70;;
70183;SDS011;57554;51.546;6.776;2023-07-08T04:13:01;5.40;;;2.50;;
70183;SDS011;57554;51.546;6.776;2023-07-08T04:15:26;6.82;;;2.33;;
70183;SDS011;57554;51.546;6.776;2023-07-08T04:17:53;6.45;;;2.67;;
70183;SDS011;57554;51.546;6.776;2023-07-08T04:20:20;6.93;;;2.95;;
70183;SDS011;57554;51.546;6.776;2023-07-08T04:22:46;6.32;;;2.97;;
70183;SDS011;57554;51.546;6.776;2023-07-08T04:25:12;6.50;;;2.30;;
70183;SDS011;57554;51.546;6.776;2023-07-08T04:27:39;6.80;;;2.80;;
70183;SDS011;57554;51.546;6.776;2023-07-08T04:30:06;8.95;;;3.00;;
70183;SDS011;57554;51.546;6.776;2023-07-08T04:32:34;5.93;;;2.50;;
70183;SDS011;57554;51.546;6.776;2023-07-08T04:35:02;7.78;;;2.60;;
70183;SDS011;57554;51.546;6.776;2023-07-08T04:37:28;5.38;;;2.53;;
70183;SDS011;57554;51.546;6.776;2023-07-08T04:39:54;5.28;;;2.63;;
70183;SDS011;57554;51.546;6.776;2023-07-08T04:42:19;5.40;;;2.30;;
70183;SDS011;57554;51.546;6.776;2023-07-08T04:44:45;6.22;;;2.55;;
70183;SDS011;57554;51.546;6.776;2023-07-08T04:47:10;5.45;;;2.60;;
70183;SDS011;57554;51.546;6.776;2023-07-08T04:49:38;5.82;;;2.60;;
70183;SDS011;57554;51.546;6.776;2023-07-08T04:52:08;7.70;;;3.08;;
70183;SDS011;57554;51.546;6.776;2023-07-08T04:54:34;8.77;;;2.72;;
70183;SDS011;57554;51.546;6.776;2023-07-08T04:56:59;6.95;;;2.90;;
70183;SDS011;57554;51.546;6.776;2023-07-08T04:59:25;5.25;;;2.47;;
70183;SDS011;57554;51.546;6.776;2023-07-08T05:01:51;9.05;;;3.00;;
70183;SDS011;57554;51.546;6.776;2023-07-08T05:04:19;5.63;;;2.75;;
70183;SDS011;57554;51.546;6.776;2023-07-08T05:06:47;6.40;;;2.55;;
70183;SDS011;57554;51.546;6.776;2023-07-08T05:09:13;7.38;;;2.30;;
70183;SDS011;57554;51.546;6.776;2023-07-08T05:11:39;5.93;;;2.20;;
70183;SDS011;57554;51.546;6.776;2023-07-08T05:14:04;7.93;;;2.67;;
70183;SDS011;57554;51.546;6.776;2023-07-08T05:16:32;6.43;;;2.30;;
70183;SDS011;57554;51.546;6.776;2023-07-08T05:18:59;5.30;;;2.55;;
70183;SDS011;57554;51.546;6.776;2023-07-08T05:21:25;13.57;;;2.90;;
70183;SDS011;57554;51.546;6.776;2023-07-08T05:23:52;6.88;;;2.42;;
70183;SDS011;57554;51.546;6.776;2023-07-08T05:26:18;5.72;;;2.70;;
70183;SDS011;57554;51.546;6.776;2023-07-08T05:28:44;6.10;;;2.53;;
70183;SDS011;57554;51.546;6.776;2023-07-08T05:31:09;5.80;;;2.90;;
70183;SDS011;57554;51.546;6.776;2023-07-08T05:33:35;7.65;;;2.85;;
70183;SDS011;57554;51.546;6.776;2023-07-08T05:36:01;7.65;;;2.60;;
70183;SDS011;57554;51.546;6.776;2023-07-08T05:38:27;5.95;;;2.90;;
70183;SDS011;57554;51.546;6.776;2023-07-08T05:40:56;7.38;;;3.08;;
70183;SDS011;57554;51.546;6.776;2023-07-08T05:43:23;6.82;;;2.53;;
70183;SDS011;57554;51.546;6.776;2023-07-08T05:45:48;5.72;;;2.80;;
70183;SDS011;57554;51.546;6.776;2023-07-08T05:48:14;5.95;;;2.70;;
70183;SDS011;57554;51.546;6.776;2023-07-08T05:50:40;6.35;;;2.90;;
70183;SDS011;57554;51.546;6.776;2023-07-08T05:53:08;7.25;;;2.80;;
70183;SDS011;57554;51.546;6.776;2023-07-08T05:55:35;6.15;;;2.95;;
70183;SDS011;57554;51.546;6.776;2023-07-08T05:58:01;5.70;;;2.75;;
70183;SDS011;57554;51.546;6.776;2023-07-08T06:00:26;7.22;;;2.83;;
70183;SDS011;57554;51.546;6.776;2023-07-08T06:02:52;8.00;;;2.70;;
70183;SDS011;57554;51.546;6.776;2023-07-08T06:05:18;8.52;;;3.00;;
70183;SDS011;57554;51.546;6.776;2023-07-08T06:07:43;8.48;;;3.10;;
70183;SDS011;57554;51.546;6.776;2023-07-08T06:10:09;6.50;;;3.13;;
70183;SDS011;57554;51.546;6.776;2023-07-08T06:12:35;7.72;;;3.00;;
70183;SDS011;57554;51.546;6.776;2023-07-08T06:15:01;6.72;;;2.95;;
70183;SDS011;57554;51.546;6.776;2023-07-08T06:17:27;7.45;;;2.90;;
70183;SDS011;57554;51.546;6.776;2023-07-08T06:19:52;7.95;;;2.78;;
70183;SDS011;57554;51.546;6.776;2023-07-08T06:22:18;6.60;;;3.30;;
70183;SDS011;57554;51.546;6.776;2023-07-08T06:24:43;7.75;;;3.10;;
70183;SDS011;57554;51.546;6.776;2023-07-08T06:27:09;8.00;;;3.28;;
70183;SDS011;57554;51.546;6.776;2023-07-08T06:29:34;8.13;;;3.20;;
70183;SDS011;57554;51.546;6.776;2023-07-08T06:32:01;6.65;;;2.67;;
70183;SDS011;57554;51.546;6.776;2023-07-08T06:34:27;10.45;;;3.53;;
70183;SDS011;57554;51.546;6.776;2023-07-08T06:36:53;7.78;;;3.25;;
70183;SDS011;57554;51.546;6.776;2023-07-08T06:39:18;5.88;;;2.95;;
70183;SDS011;57554;51.546;6.776;2023-07-08T06:41:44;8.43;;;3.42;;
70183;SDS011;57554;51.546;6.776;2023-07-08T06:44:10;9.02;;;3.70;;
70183;SDS011;57554;51.546;6.776;2023-07-08T06:46:35;6.65;;;3.00;;
70183;SDS011;57554;51.546;6.776;2023-07-08T06:49:01;8.00;;;3.03;;
70183;SDS011;57554;51.546;6.776;2023-07-08T06:51:27;8.50;;;3.13;;
70183;SDS011;57554;51.546;6.776;2023-07-08T06:53:53;8.15;;;3.15;;
70183;SDS011;57554;51.546;6.776;2023-07-08T06:56:19;7.35;;;3.20;;
70183;SDS011;57554;51.546;6.776;2023-07-08T06:58:45;7.80;;;3.40;;
70183;SDS011;57554;51.546;6.776;2023-07-08T07:01:10;6.78;;;2.92;;
70183;SDS011;57554;51.546;6.776;2023-07-08T07:03:36;6.40;;;2.97;;
70183;SDS011;57554;51.546;6.776;2023-07-08T07:06:02;7.75;;;3.33;;
70183;SDS011;57554;51.546;6.776;2023-07-08T07:08:28;11.40;;;3.45;;
70183;SDS011;57554;51.546;6.776;2023-07-08T07:10:53;8.65;;;3.95;;
70183;SDS011;57554;51.546;6.776;2023-07-08T07:13:19;7.63;;;3.22;;
70183;SDS011;57554;51.546;6.776;2023-07-08T07:15:44;7.30;;;3.00;;
70183;SDS011;57554;51.546;6.776;2023-07-08T07:18:12;7.55;;;3.00;;
70183;SDS011;57554;51.546;6.776;2023-07-08T07:20:38;8.10;;;3.47;;
70183;SDS011;57554;51.546;6.776;2023-07-08T07:23:03;6.93;;;3.30;;
70183;SDS011;57554;51.546;6.776;2023-07-08T07:25:29;9.27;;;3.35;;
70183;SDS011;57554;51.546;6.776;2023-07-08T07:27:54;7.70;;;3.28;;
70183;SDS011;57554;51.546;6.776;2023-07-08T07:30:20;6.88;;;3.30;;
70183;SDS011;57554;51.546;6.776;2023-07-08T07:32:46;9.20;;;3.60;;
70183;SDS011;57554;51.546;6.776;2023-07-08T07:35:12;7.38;;;3.20;;
70183;SDS011;57554;51.546;6.776;2023-07-08T07:37:40;10.02;;;3.58;;
70183;SDS011;57554;51.546;6.776;2023-07-08T07:40:09;8.23;;;3.58;;
70183;SDS011;57554;51.546;6.776;2023-07-08T07:42:38;8.23;;;3.63;;
70183;SDS011;57554;51.546;6.776;2023-07-08T07:45:05;6.70;;;3.40;;
70183;SDS011;57554;51.546;6.776;2023-07-08T07:47:31;7.22;;;3.38;;
70183;SDS011;57554;51.546;6.776;2023-07-08T07:49:56;11.27;;;3.53;;
70183;SDS011;57554;51.546;6.776;2023-07-08T07:52:23;8.23;;;3.83;;
70183;SDS011;57554;51.546;6.776;2023-07-08T07:54:49;7.50;;;3.85;;
70183;SDS011;57554;51.546;6.776;2023-07-08T07:57:16;6.97;;;3.33;;
70183;SDS011;57554;51.546;6.776;2023-07-08T07:59:42;8.30;;;4.38;;
70183;SDS011;57554;51.546;6.776;2023-07-08T08:02:08;9.35;;;3.95;;
70183;SDS011;57554;51.546;6.776;2023-07-08T08:04:33;15.85;;;4.00;;
70183;SDS011;57554;51.546;6.776;2023-07-08T08:06:59;9.32;;;4.32;;
70183;SDS011;57554;51.546;6.776;2023-07-08T08:09:25;7.00;;;3.67;;
70183;SDS011;57554;51.546;6.776;2023-07-08T08:11:50;8.75;;;4.13;;
70183;SDS011;57554;51.546;6.776;2023-07-08T08:14:17;11.90;;;4.13;;
70183;SDS011;57554;51.546;6.776;2023-07-08T08:16:43;9.10;;;4.38;;
70183;SDS011;57554;51.546;6.776;2023-07-08T08:19:08;10.40;;;4.30;;
70183;SDS011;57554;51.546;6.776;2023-07-08T08:21:34;9.20;;;4.57;;
70183;SDS011;57554;51.546;6.776;2023-07-08T08:24:00;10.05;;;4.60;;
70183;SDS011;57554;51.546;6.776;2023-07-08T08:26:26;9.85;;;4.20;;
70183;SDS011;57554;51.546;6.776;2023-07-08T08:28:52;8.07;;;4.07;;
70183;SDS011;57554;51.546;6.776;2023-07-08T08:31:17;14.18;;;4.38;;
70183;SDS011;57554;51.546;6.776;2023-07-08T08:33:43;7.75;;;4.63;;
70183;SDS011;57554;51.546;6.776;2023-07-08T08:36:09;9.05;;;3.95;;
70183;SDS011;57554;51.546;6.776;2023-07-08T08:38:34;13.02;;;4.75;;
70183;SDS011;57554;51.546;6.776;2023-07-08T08:41:04;8.70;;;4.15;;
70183;SDS011;57554;51.546;6.776;2023-07-08T08:43:36;7.43;;;4.25;;
70183;SDS011;57554;51.546;6.776;2023-07-08T08:51:45;8.02;;;4.60;;
70183;SDS011;57554;51.546;6.776;2023-07-08T08:54:11;7.43;;;4.22;;
70183;SDS011;57554;51.546;6.776;2023-07-08T09:04:44;7.32;;;4.50;;
70183;SDS011;57554;51.546;6.776;2023-07-08T09:07:14;8.75;;;4.22;;
70183;SDS011;57554;51.546;6.776;2023-07-08T09:09:47;8.38;;;4.53;;
70183;SDS011;57554;51.546;6.776;2023-07-08T09:12:24;9.00;;;4.55;;
70183;SDS011;57554;51.546;6.776;2023-07-08T09:14:52;8.05;;;4.43;;
70183;SDS011;57554;51.546;6.776;2023-07-08T09:17:31;8.43;;;4.75;;
70183;SDS011;57554;51.546;6.776;2023-07-08T09:22:51;8.00;;;4.20;;
70183;SDS011;57554;51.546;6.776;2023-07-08T09:25:46;15.25;;;4.85;;
70183;SDS011;57554;51.546;6.776;2023-07-08T09:28:19;9.73;;;5.05;;
70183;SDS011;57554;51.546;6.776;2023-07-08T09:30:48;9.32;;;5.18;;
70183;SDS011;57554;51.546;6.776;2023-07-08T09:33:15;11.05;;;5.25;;
70183;SDS011;57554;51.546;6.776;2023-07-08T09:35:42;8.70;;;5.72;;
70183;SDS011;57554;51.546;6.776;2023-07-08T09:38:16;9.93;;;5.50;;
70183;SDS011;57554;51.546;6.776;2023-07-08T09:40:52;7.22;;;4.43;;
70183;SDS011;57554;51.546;6.776;2023-07-08T09:43:27;10.88;;;5.05;;
70183;SDS011;57554;51.546;6.776;2023-07-08T09:46:03;7.53;;;4.63;;
70183;SDS011;57554;51.546;6.776;2023-07-08T09:48:31;8.70;;;5.20;;
70183;SDS011;57554;51.546;6.776;2023-07-08T09:51:00;8.98;;;4.93;;
70183;SDS011;57554;51.546;6.776;2023-07-08T09:53:26;16.33;;;5.30;;
70183;SDS011;57554;51.546;6.776;2023-07-08T09:55:53;9.10;;;4.70;;
70183;SDS011;57554;51.546;6.776;2023-07-08T09:58:22;7.40;;;4.07;;
70183;SDS011;57554;51.546;6.776;2023-07-08T10:00:53;8.65;;;3.90;;
70183;SDS011;57554;51.546;6.776;2023-07-08T10:03:26;7.85;;;4.00;;
70183;SDS011;57554;51.546;6.776;2023-07-08T10:05:56;7.80;;;3.97;;
70183;SDS011;57554;51.546;6.776;2023-07-08T10:08:28;8.00;;;4.60;;
70183;SDS011;57554;51.546;6.776;2023-07-08T10:11:10;12.75;;;4.15;;
70183;SDS011;57554;51.546;6.776;2023-07-08T10:13:53;6.65;;;3.95;;
70183;SDS011;57554;51.546;6.776;2023-07-08T10:16:25;7.30;;;3.72;;
70183;SDS011;57554;51.546;6.776;2023-07-08T10:18:53;9.75;;;3.78;;
70183;SDS011;57554;51.546;6.776;2023-07-08T10:21:55;8.90;;;3.85;;
70183;SDS011;57554;51.546;6.776;2023-07-08T10:35:34;11.07;;;4.57;;
70183;SDS011;57554;51.546;6.776;2023-07-08T10:40:59;7.85;;;3.75;;
70183;SDS011;57554;51.546;6.776;2023-07-08T10:43:31;7.25;;;3.58;;
70183;SDS011;57554;51.546;6.776;2023-07-08T10:46:18;11.60;;;4.60;;
70183;SDS011;57554;51.546;6.776;2023-07-08T10:49:08;8.82;;;3.88;;
70183;SDS011;57554;51.546;6.776;2023-07-08T11:03:20;7.60;;;4.15;;
70183;SDS011;57554;51.546;6.776;2023-07-08T11:06:15;6.15;;;3.83;;
70183;SDS011;57554;51.546;6.776;2023-07-08T11:09:00;11.65;;;4.22;;
70183;SDS011;57554;51.546;6.776;2023-07-08T11:11:33;6.15;;;3.50;;
70183;SDS011;57554;51.546;6.776;2023-07-08T11:14:15;6.13;;;3.35;;
70183;SDS011;57554;51.546;6.776;2023-07-08T11:17:30;7.75;;;3.78;;
70183;SDS011;57554;51.546;6.776;2023-07-08T11:19:48;7.40;;;4.05;;
70183;SDS011;57554;51.546;6.776;2023-07-08T11:22:21;8.85;;;3.65;;
70183;SDS011;57554;51.546;6.776;2023-07-08T11:24:48;8.52;;;3.72;;
70183;SDS011;57554;51.546;6.776;2023-07-08T11:27:21;7.10;;;3.80;;
70183;SDS011;57554;51.546;6.776;2023-07-08T11:29:59;8.02;;;3.60;;
70183;SDS011;57554;51.546;6.776;2023-07-08T11:32:27;8.68;;;3.83;;
70183;SDS011;57554;51.546;6.776;2023-07-08T11:34:55;5.95;;;3.22;;
70183;SDS011;57554;51.546;6.776;2023-07-08T11:37:23;7.55;;;3.50;;
70183;SDS011;57554;51.546;6.776;2023-07-08T11:39:54;6.57;;;3.53;;
70183;SDS011;57554;51.546;6.776;2023-07-08T11:42:38;7.80;;;3.70;;
70183;SDS011;57554;51.546;6.776;2023-07-08T11:45:08;6.55;;;3.67;;
70183;SDS011;57554;51.546;6.776;2023-07-08T11:48:03;8.27;;;3.47;;
70183;SDS011;57554;51.546;6.776;2023-07-08T11:50:32;9.38;;;3.40;;
70183;SDS011;57554;51.546;6.776;2023-07-08T11:53:06;6.68;;;3.25;;
70183;SDS011;57554;51.546;6.776;2023-07-08T11:55:44;7.53;;;3.50;;
70183;SDS011;57554;51.546;6.776;2023-07-08T11:58:21;7.97;;;3.72;;
70183;SDS011;57554;51.546;6.776;2023-07-08T12:00:52;8.15;;;3.35;;
70183;SDS011;57554;51.546;6.776;2023-07-08T12:03:23;7.47;;;3.47;;
70183;SDS011;57554;51.546;6.776;2023-07-08T12:09:21;8.30;;;3.45;;
70183;SDS011;57554;51.546;6.776;2023-07-08T12:11:53;7.78;;;3.63;;
70183;SDS011;57554;51.546;6.776;2023-07-08T12:14:20;7.55;;;3.60;;
70183;SDS011;57554;51.546;6.776;2023-07-08T12:16:48;8.10;;;3.55;;
70183;SDS011;57554;51.546;6.776;2023-07-08T12:19:15;7.55;;;3.55;;
70183;SDS011;57554;51.546;6.776;2023-07-08T12:21:43;6.80;;;3.40;;
70183;SDS011;57554;51.546;6.776;2023-07-08T12:24:12;9.75;;;3.63;;
70183;SDS011;57554;51.546;6.776;2023-07-08T12:29:05;6.05;;;3.30;;
70183;SDS011;57554;51.546;6.776;2023-07-08T12:31:31;6.95;;;3.35;;
70183;SDS011;57554;51.546;6.776;2023-07-08T12:33:57;6.50;;;3.50;;
70183;SDS011;57554;51.546;6.776;2023-07-08T12:36:27;7.53;;;3.50;;
70183;SDS011;57554;51.546;6.776;2023-07-08T12:38:55;8.45;;;3.58;;
70183;SDS011;57554;51.546;6.776;2023-07-08T12:41:24;10.10;;;3.75;;
70183;SDS011;57554;51.546;6.776;2023-07-08T12:43:53;9.23;;;3.42;;
70183;SDS011;57554;51.546;6.776;2023-07-08T12:46:20;6.95;;;3.40;;
70183;SDS011;57554;51.546;6.776;2023-07-08T12:48:47;7.95;;;3.40;;
70183;SDS011;57554;51.546;6.776;2023-07-08T12:51:14;7.15;;;3.38;;
70183;SDS011;57554;51.546;6.776;2023-07-08T12:53:42;9.02;;;3.50;;
70183;SDS011;57554;51.546;6.776;2023-07-08T12:56:08;10.02;;;3.25;;
70183;SDS011;57554;51.546;6.776;2023-07-08T12:58:38;7.15;;;3.47;;
70183;SDS011;57554;51.546;6.776;2023-07-08T13:01:15;6.57;;;3.45;;
70183;SDS011;57554;51.546;6.776;2023-07-08T13:03:43;8.65;;;3.50;;
70183;SDS011;57554;51.546;6.776;2023-07-08T13:06:12;5.95;;;3.30;;
70183;SDS011;57554;51.546;6.776;2023-07-08T13:08:41;7.53;;;3.63;;
70183;SDS011;57554;51.546;6.776;2023-07-08T13:11:08;7.65;;;3.47;;
70183;SDS011;57554;51.546;6.776;2023-07-08T13:13:35;7.95;;;3.40;;
70183;SDS011;57554;51.546;6.776;2023-07-08T13:16:09;6.93;;;3.38;;
70183;SDS011;57554;51.546;6.776;2023-07-08T13:18:39;7.38;;;3.53;;
70183;SDS011;57554;51.546;6.776;2023-07-08T13:21:06;6.70;;;3.17;;
70183;SDS011;57554;51.546;6.776;2023-07-08T13:23:35;10.13;;;3.53;;
70183;SDS011;57554;51.546;6.776;2023-07-08T13:26:01;9.98;;;3.55;;
70183;SDS011;57554;51.546;6.776;2023-07-08T13:28:40;9.38;;;3.70;;
70183;SDS011;57554;51.546;6.776;2023-07-08T13:31:19;6.78;;;3.45;;
70183;SDS011;57554;51.546;6.776;2023-07-08T13:33:47;9.02;;;3.17;;
70183;SDS011;57554;51.546;6.776;2023-07-08T13:36:21;6.50;;;3.58;;
70183;SDS011;57554;51.546;6.776;2023-07-08T13:38:48;10.00;;;3.50;;
70183;SDS011;57554;51.546;6.776;2023-07-08T13:41:18;8.18;;;3.45;;
70183;SDS011;57554;51.546;6.776;2023-07-08T13:46:27;8.60;;;3.30;;
70183;SDS011;57554;51.546;6.776;2023-07-08T13:48:55;7.45;;;3.58;;
70183;SDS011;57554;51.546;6.776;2023-07-08T13:51:21;8.38;;;3.30;;
70183;SDS011;57554;51.546;6.776;2023-07-08T13:53:50;7.15;;;3.50;;
70183;SDS011;57554;51.546;6.776;2023-07-08T13:56:28;7.38;;;3.13;;
70183;SDS011;57554;51.546;6.776;2023-07-08T13:59:01;6.50;;;3.13;;
70183;SDS011;57554;51.546;6.776;2023-07-08T14:01:28;8.20;;;3.15;;
70183;SDS011;57554;51.546;6.776;2023-07-08T14:03:55;8.38;;;3.05;;
70183;SDS011;57554;51.546;6.776;2023-07-08T14:06:25;7.50;;;3.22;;
70183;SDS011;57554;51.546;6.776;2023-07-08T14:08:54;6.30;;;3.45;;
70183;SDS011;57554;51.546;6.776;2023-07-08T14:11:21;8.73;;;3.05;;
70183;SDS011;57554;51.546;6.776;2023-07-08T14:13:47;7.25;;;3.20;;
70183;SDS011;57554;51.546;6.776;2023-07-08T14:16:35;7.15;;;3.28;;
70183;SDS011;57554;51.546;6.776;2023-07-08T14:19:02;7.30;;;3.40;;
70183;SDS011;57554;51.546;6.776;2023-07-08T14:21:30;70.22;;;7.75;;
70183;SDS011;57554;51.546;6.776;2023-07-08T14:23:57;83.13;;;7.78;;
70183;SDS011;57554;51.546;6.776;2023-07-08T14:26:23;7.72;;;3.35;;
70183;SDS011;57554;51.546;6.776;2023-07-08T14:28:49;6.13;;;3.13;;
70183;SDS011;57554;51.546;6.776;2023-07-08T14:31:16;8.15;;;3.13;;
70183;SDS011;57554;51.546;6.776;2023-07-08T14:33:45;6.32;;;3.00;;
70183;SDS011;57554;51.546;6.776;2023-07-08T14:36:11;6.95;;;3.13;;
70183;SDS011;57554;51.546;6.776;2023-07-08T14:38:39;8.38;;;3.10;;
70183;SDS011;57554;51.546;6.776;2023-07-08T14:41:04;6.95;;;3.45;;
70183;SDS011;57554;51.546;6.776;2023-07-08T14:43:31;84.15;;;7.18;;
70183;SDS011;57554;51.546;6.776;2023-07-08T14:45:58;10.20;;;4.00;;
70183;SDS011;57554;51.546;6.776;2023-07-08T14:48:30;6.07;;;3.00;;
70183;SDS011;57554;51.546;6.776;2023-07-08T14:50:57;8.25;;;3.50;;
70183;SDS011;57554;51.546;6.776;2023-07-08T14:53:23;7.68;;;3.47;;
70183;SDS011;57554;51.546;6.776;2023-07-08T14:55:49;6.93;;;2.95;;
70183;SDS011;57554;51.546;6.776;2023-07-08T14:58:20;7.13;;;3.03;;
70183;SDS011;57554;51.546;6.776;2023-07-08T15:00:58;6.45;;;3.13;;
70183;SDS011;57554;51.546;6.776;2023-07-08T15:03:27;6.97;;;3.63;;
70183;SDS011;57554;51.546;6.776;2023-07-08T15:05:53;7.65;;;3.30;;
70183;SDS011;57554;51.546;6.776;2023-07-08T15:08:19;8.25;;;3.15;;
70183;SDS011;57554;51.546;6.776;2023-07-08T15:10:46;8.77;;;3.78;;
70183;SDS011;57554;51.546;6.776;2023-07-08T15:13:14;7.30;;;3.13;;
70183;SDS011;57554;51.546;6.776;2023-07-08T15:15:40;5.60;;;2.95;;
70183;SDS011;57554;51.546;6.776;2023-07-08T15:18:15;31.50;;;6.05;;
70183;SDS011;57554;51.546;6.776;2023-07-08T15:20:42;7.80;;;3.20;;
70183;SDS011;57554;51.546;6.776;2023-07-08T15:23:11;7.75;;;3.33;;
70183;SDS011;57554;51.546;6.776;2023-07-08T15:25:38;8.00;;;3.33;;
70183;SDS011;57554;51.546;6.776;2023-07-08T15:28:07;6.30;;;2.95;;
70183;SDS011;57554;51.546;6.776;2023-07-08T15:30:45;9.73;;;3.50;;
70183;SDS011;57554;51.546;6.776;2023-07-08T15:33:12;8.30;;;3.30;;
70183;SDS011;57554;51.546;6.776;2023-07-08T15:35:41;10.07;;;3.50;;
70183;SDS011;57554;51.546;6.776;2023-07-08T15:38:07;7.65;;;3.30;;
70183;SDS011;57554;51.546;6.776;2023-07-08T15:40:33;7.53;;;3.30;;
70183;SDS011;57554;51.546;6.776;2023-07-08T15:43:01;11.30;;;3.22;;
70183;SDS011;57554;51.546;6.776;2023-07-08T15:45:29;7.80;;;3.15;;
70183;SDS011;57554;51.546;6.776;2023-07-08T15:47:57;9.38;;;3.28;;
70183;SDS011;57554;51.546;6.776;2023-07-08T15:50:24;7.70;;;2.88;;